sensor_id;sensor_type;location;lat;lon;timestamp;P1;durP1;ratioP1;P2;durP2;ratioP2
39094;SDS011;24840;47.508;19.376;2024-03-17T00:01:35;18.38;;;14.73;;
39094;SDS011;24840;47.508;19.376;2024-03-17T00:04:01;17.95;;;14.13;;
39094;SDS011;24840;47.508;19.376;2024-03-17T00:06:27;21.02;;;16.17;;
39094;SDS011;24840;47.508;19.376;2024-03-17T00:08:53;20.63;;;15.40;;
39094;SDS011;24840;47.508;19.376;2024-03-17T00:11:20;20.27;;;14.35;;
39094;SDS011;24840;47.508;19.376;2024-03-17T00:13:46;17.85;;;14.65;;
39094;SDS011;24840;47.508;19.376;2024-03-17T00:16:12;20.60;;;15.32;;
39094;SDS011;24840;47.508;19.376;2024-03-17T00:18:38;21.77;;;13.93;;
39094;SDS011;24840;47.508;19.376;2024-03-17T00:21:05;19.52;;;14.90;;
39094;SDS011;24840;47.508;19.376;2024-03-17T00:23:31;16.50;;;12.32;;
39094;SDS011;24840;47.508;19.376;2024-03-17T00:25:57;20.80;;;15.82;;
39094;SDS011;24840;47.508;19.376;2024-03-17T00:28:23;19.55;;;15.43;;
39094;SDS011;24840;47.508;19.376;2024-03-17T00:30:50;23.33;;;15.18;;
39094;SDS011;24840;47.508;19.376;2024-03-17T00:33:16;19.00;;;15.23;;
39094;SDS011;24840;47.508;19.376;2024-03-17T00:35:44;19.95;;;15.30;;
39094;SDS011;24840;47.508;19.376;2024-03-17T00:38:10;19.58;;;14.25;;
39094;SDS011;24840;47.508;19.376;2024-03-17T00:40:37;19.80;;;13.77;;
39094;SDS011;24840;47.508;19.376;2024-03-17T00:43:03;18.20;;;14.00;;
39094;SDS011;24840;47.508;19.376;2024-03-17T00:45:29;19.30;;;14.57;;
39094;SDS011;24840;47.508;19.376;2024-03-17T00:47:55;17.13;;;14.18;;
39094;SDS011;24840;47.508;19.376;2024-03-17T00:50:21;15.75;;;11.75;;
39094;SDS011;24840;47.508;19.376;2024-03-17T00:52:47;11.80;;;9.27;;
39094;SDS011;24840;47.508;19.376;2024-03-17T00:55:13;13.77;;;10.70;;
39094;SDS011;24840;47.508;19.376;2024-03-17T00:57:40;14.25;;;11.23;;
39094;SDS011;24840;47.508;19.376;2024-03-17T01:00:06;16.92;;;13.02;;
39094;SDS011;24840;47.508;19.376;2024-03-17T01:02:35;16.63;;;11.57;;
39094;SDS011;24840;47.508;19.376;2024-03-17T01:05:01;21.38;;;12.43;;
39094;SDS011;24840;47.508;19.376;2024-03-17T01:07:30;11.88;;;10.18;;
39094;SDS011;24840;47.508;19.376;2024-03-17T01:09:56;13.77;;;9.50;;
39094;SDS011;24840;47.508;19.376;2024-03-17T01:12:22;12.18;;;9.13;;
39094;SDS011;24840;47.508;19.376;2024-03-17T01:14:48;13.85;;;9.90;;
39094;SDS011;24840;47.508;19.376;2024-03-17T01:17:14;9.50;;;7.90;;
39094;SDS011;24840;47.508;19.376;2024-03-17T01:19:40;8.93;;;7.03;;
39094;SDS011;24840;47.508;19.376;2024-03-17T01:22:06;12.05;;;7.72;;
39094;SDS011;24840;47.508;19.376;2024-03-17T01:24:32;8.82;;;7.05;;
39094;SDS011;24840;47.508;19.376;2024-03-17T01:26:59;8.00;;;6.28;;
39094;SDS011;24840;47.508;19.376;2024-03-17T01:29:26;9.20;;;6.88;;
39094;SDS011;24840;47.508;19.376;2024-03-17T01:31:52;9.27;;;6.53;;
39094;SDS011;24840;47.508;19.376;2024-03-17T01:34:19;9.80;;;6.72;;
39094;SDS011;24840;47.508;19.376;2024-03-17T01:36:45;8.63;;;6.50;;
39094;SDS011;24840;47.508;19.376;2024-03-17T01:39:11;8.07;;;6.68;;
39094;SDS011;24840;47.508;19.376;2024-03-17T01:41:37;7.07;;;5.47;;
39094;SDS011;24840;47.508;19.376;2024-03-17T01:44:03;8.15;;;5.78;;
39094;SDS011;24840;47.508;19.376;2024-03-17T01:46:29;8.43;;;5.95;;
39094;SDS011;24840;47.508;19.376;2024-03-17T01:48:56;6.07;;;4.53;;
39094;SDS011;24840;47.508;19.376;2024-03-17T01:51:22;8.70;;;4.60;;
39094;SDS011;24840;47.508;19.376;2024-03-17T01:53:49;7.90;;;3.97;;
39094;SDS011;24840;47.508;19.376;2024-03-17T01:56:15;5.20;;;3.70;;
39094;SDS011;24840;47.508;19.376;2024-03-17T01:58:45;5.15;;;3.80;;
39094;SDS011;24840;47.508;19.376;2024-03-17T02:01:11;4.93;;;3.75;;
39094;SDS011;24840;47.508;19.376;2024-03-17T02:03:41;5.28;;;3.63;;
39094;SDS011;24840;47.508;19.376;2024-03-17T02:06:07;4.70;;;3.38;;
39094;SDS011;24840;47.508;19.376;2024-03-17T02:08:47;5.35;;;3.58;;
39094;SDS011;24840;47.508;19.376;2024-03-17T02:11:29;8.48;;;3.70;;
39094;SDS011;24840;47.508;19.376;2024-03-17T02:13:56;5.63;;;3.17;;
39094;SDS011;24840;47.508;19.376;2024-03-17T02:16:22;4.53;;;2.70;;
39094;SDS011;24840;47.508;19.376;2024-03-17T02:18:49;3.43;;;2.63;;
39094;SDS011;24840;47.508;19.376;2024-03-17T02:21:15;3.97;;;2.50;;
39094;SDS011;24840;47.508;19.376;2024-03-17T02:23:42;3.05;;;2.15;;
39094;SDS011;24840;47.508;19.376;2024-03-17T02:26:08;4.68;;;1.77;;
39094;SDS011;24840;47.508;19.376;2024-03-17T02:28:38;3.65;;;2.30;;
39094;SDS011;24840;47.508;19.376;2024-03-17T02:31:05;3.28;;;2.03;;
39094;SDS011;24840;47.508;19.376;2024-03-17T02:33:31;4.47;;;2.10;;
39094;SDS011;24840;47.508;19.376;2024-03-17T02:35:57;2.80;;;1.48;;
39094;SDS011;24840;47.508;19.376;2024-03-17T02:38:23;2.60;;;1.90;;
39094;SDS011;24840;47.508;19.376;2024-03-17T02:41:07;3.13;;;1.60;;
39094;SDS011;24840;47.508;19.376;2024-03-17T02:43:34;3.97;;;1.57;;
39094;SDS011;24840;47.508;19.376;2024-03-17T02:46:01;2.47;;;1.70;;
39094;SDS011;24840;47.508;19.376;2024-03-17T02:48:29;4.57;;;2.17;;
39094;SDS011;24840;47.508;19.376;2024-03-17T02:50:55;4.40;;;1.90;;
39094;SDS011;24840;47.508;19.376;2024-03-17T02:53:21;2.33;;;1.50;;
39094;SDS011;24840;47.508;19.376;2024-03-17T02:55:47;2.73;;;1.80;;
39094;SDS011;24840;47.508;19.376;2024-03-17T02:58:13;4.05;;;2.38;;
39094;SDS011;24840;47.508;19.376;2024-03-17T03:00:39;3.00;;;2.23;;
39094;SDS011;24840;47.508;19.376;2024-03-17T03:03:05;3.87;;;2.60;;
39094;SDS011;24840;47.508;19.376;2024-03-17T03:05:32;3.37;;;2.37;;
39094;SDS011;24840;47.508;19.376;2024-03-17T03:07:58;2.42;;;1.98;;
39094;SDS011;24840;47.508;19.376;2024-03-17T03:10:24;2.85;;;1.98;;
39094;SDS011;24840;47.508;19.376;2024-03-17T03:12:50;2.77;;;2.33;;
39094;SDS011;24840;47.508;19.376;2024-03-17T03:15:16;3.17;;;2.30;;
39094;SDS011;24840;47.508;19.376;2024-03-17T03:17:43;3.70;;;2.63;;
39094;SDS011;24840;47.508;19.376;2024-03-17T03:20:09;4.82;;;2.53;;
39094;SDS011;24840;47.508;19.376;2024-03-17T03:22:37;3.53;;;2.40;;
39094;SDS011;24840;47.508;19.376;2024-03-17T03:25:03;3.97;;;2.25;;
39094;SDS011;24840;47.508;19.376;2024-03-17T03:27:29;4.35;;;2.63;;
39094;SDS011;24840;47.508;19.376;2024-03-17T03:29:55;4.20;;;2.63;;
39094;SDS011;24840;47.508;19.376;2024-03-17T03:32:21;5.40;;;2.95;;
39094;SDS011;24840;47.508;19.376;2024-03-17T03:34:47;3.92;;;1.73;;
39094;SDS011;24840;47.508;19.376;2024-03-17T03:37:13;3.95;;;2.55;;
39094;SDS011;24840;47.508;19.376;2024-03-17T03:39:40;3.67;;;2.40;;
39094;SDS011;24840;47.508;19.376;2024-03-17T03:42:06;2.47;;;2.28;;
39094;SDS011;24840;47.508;19.376;2024-03-17T03:44:32;3.92;;;2.83;;
39094;SDS011;24840;47.508;19.376;2024-03-17T03:46:58;2.05;;;1.75;;
39094;SDS011;24840;47.508;19.376;2024-03-17T03:49:26;3.53;;;2.67;;
39094;SDS011;24840;47.508;19.376;2024-03-17T03:51:52;2.38;;;1.60;;
39094;SDS011;24840;47.508;19.376;2024-03-17T03:54:18;3.78;;;2.30;;
39094;SDS011;24840;47.508;19.376;2024-03-17T03:56:44;2.50;;;1.87;;
39094;SDS011;24840;47.508;19.376;2024-03-17T03:59:10;2.17;;;1.80;;
39094;SDS011;24840;47.508;19.376;2024-03-17T04:01:36;3.13;;;1.95;;
39094;SDS011;24840;47.508;19.376;2024-03-17T04:04:02;2.67;;;2.15;;
39094;SDS011;24840;47.508;19.376;2024-03-17T04:06:28;2.90;;;1.80;;
39094;SDS011;24840;47.508;19.376;2024-03-17T04:08:54;7.03;;;2.35;;
39094;SDS011;24840;47.508;19.376;2024-03-17T04:11:20;3.28;;;2.08;;
39094;SDS011;24840;47.508;19.376;2024-03-17T04:13:46;3.03;;;2.05;;
39094;SDS011;24840;47.508;19.376;2024-03-17T04:16:13;3.95;;;1.63;;
39094;SDS011;24840;47.508;19.376;2024-03-17T04:18:40;2.72;;;1.80;;
39094;SDS011;24840;47.508;19.376;2024-03-17T04:21:06;2.40;;;1.50;;
39094;SDS011;24840;47.508;19.376;2024-03-17T04:23:32;4.22;;;2.17;;
39094;SDS011;24840;47.508;19.376;2024-03-17T04:25:59;6.03;;;2.25;;
39094;SDS011;24840;47.508;19.376;2024-03-17T04:28:25;2.92;;;1.92;;
39094;SDS011;24840;47.508;19.376;2024-03-17T04:30:51;3.38;;;2.30;;
39094;SDS011;24840;47.508;19.376;2024-03-17T04:33:17;3.60;;;2.08;;
39094;SDS011;24840;47.508;19.376;2024-03-17T04:35:43;3.72;;;1.88;;
39094;SDS011;24840;47.508;19.376;2024-03-17T04:38:10;3.90;;;2.08;;
39094;SDS011;24840;47.508;19.376;2024-03-17T04:40:39;3.80;;;2.05;;
39094;SDS011;24840;47.508;19.376;2024-03-17T04:43:06;3.03;;;1.92;;
39094;SDS011;24840;47.508;19.376;2024-03-17T04:45:32;2.28;;;1.88;;
39094;SDS011;24840;47.508;19.376;2024-03-17T04:47:58;3.80;;;1.90;;
39094;SDS011;24840;47.508;19.376;2024-03-17T04:50:24;4.80;;;1.73;;
39094;SDS011;24840;47.508;19.376;2024-03-17T04:52:51;2.72;;;2.20;;
39094;SDS011;24840;47.508;19.376;2024-03-17T04:55:17;3.10;;;1.90;;
39094;SDS011;24840;47.508;19.376;2024-03-17T04:57:44;2.45;;;1.95;;
39094;SDS011;24840;47.508;19.376;2024-03-17T05:00:11;2.15;;;1.45;;
39094;SDS011;24840;47.508;19.376;2024-03-17T05:02:38;3.03;;;1.73;;
39094;SDS011;24840;47.508;19.376;2024-03-17T05:05:05;2.70;;;1.60;;
39094;SDS011;24840;47.508;19.376;2024-03-17T05:07:33;3.67;;;1.97;;
39094;SDS011;24840;47.508;19.376;2024-03-17T05:09:59;3.37;;;1.53;;
39094;SDS011;24840;47.508;19.376;2024-03-17T05:12:25;2.67;;;1.60;;
39094;SDS011;24840;47.508;19.376;2024-03-17T05:14:51;2.53;;;2.15;;
39094;SDS011;24840;47.508;19.376;2024-03-17T05:17:17;2.78;;;1.40;;
39094;SDS011;24840;47.508;19.376;2024-03-17T05:19:43;2.67;;;2.07;;
39094;SDS011;24840;47.508;19.376;2024-03-17T05:22:09;2.17;;;1.70;;
39094;SDS011;24840;47.508;19.376;2024-03-17T05:24:35;4.05;;;2.75;;
39094;SDS011;24840;47.508;19.376;2024-03-17T05:27:01;3.28;;;2.65;;
39094;SDS011;24840;47.508;19.376;2024-03-17T05:29:28;3.28;;;1.85;;
39094;SDS011;24840;47.508;19.376;2024-03-17T05:31:55;3.53;;;2.28;;
39094;SDS011;24840;47.508;19.376;2024-03-17T05:34:21;3.38;;;2.03;;
39094;SDS011;24840;47.508;19.376;2024-03-17T05:36:49;3.53;;;2.90;;
39094;SDS011;24840;47.508;19.376;2024-03-17T05:39:15;4.33;;;3.27;;
39094;SDS011;24840;47.508;19.376;2024-03-17T05:41:42;8.73;;;6.60;;
39094;SDS011;24840;47.508;19.376;2024-03-17T05:44:08;11.20;;;9.37;;
39094;SDS011;24840;47.508;19.376;2024-03-17T05:46:34;14.35;;;11.63;;
39094;SDS011;24840;47.508;19.376;2024-03-17T05:49:00;15.67;;;12.43;;
39094;SDS011;24840;47.508;19.376;2024-03-17T05:51:28;19.03;;;14.67;;
39094;SDS011;24840;47.508;19.376;2024-03-17T05:53:54;16.83;;;13.90;;
39094;SDS011;24840;47.508;19.376;2024-03-17T05:56:23;15.40;;;11.50;;
39094;SDS011;24840;47.508;19.376;2024-03-17T05:58:49;14.75;;;11.90;;
39094;SDS011;24840;47.508;19.376;2024-03-17T06:01:15;11.70;;;10.50;;
39094;SDS011;24840;47.508;19.376;2024-03-17T06:03:42;15.30;;;10.57;;
39094;SDS011;24840;47.508;19.376;2024-03-17T06:06:08;11.38;;;10.07;;
39094;SDS011;24840;47.508;19.376;2024-03-17T06:08:37;12.05;;;10.45;;
39094;SDS011;24840;47.508;19.376;2024-03-17T06:11:06;10.87;;;8.70;;
39094;SDS011;24840;47.508;19.376;2024-03-17T06:13:33;12.25;;;9.38;;
39094;SDS011;24840;47.508;19.376;2024-03-17T06:15:59;9.70;;;7.97;;
39094;SDS011;24840;47.508;19.376;2024-03-17T06:18:27;10.65;;;9.35;;
39094;SDS011;24840;47.508;19.376;2024-03-17T06:20:53;16.33;;;11.52;;
39094;SDS011;24840;47.508;19.376;2024-03-17T06:23:23;12.98;;;10.80;;
39094;SDS011;24840;47.508;19.376;2024-03-17T06:25:49;15.25;;;10.88;;
39094;SDS011;24840;47.508;19.376;2024-03-17T06:28:20;12.15;;;9.55;;
39094;SDS011;24840;47.508;19.376;2024-03-17T06:30:54;12.27;;;9.13;;
39094;SDS011;24840;47.508;19.376;2024-03-17T06:33:21;13.70;;;8.07;;
39094;SDS011;24840;47.508;19.376;2024-03-17T06:35:47;7.57;;;5.53;;
39094;SDS011;24840;47.508;19.376;2024-03-17T06:38:13;5.33;;;3.90;;
39094;SDS011;24840;47.508;19.376;2024-03-17T06:40:40;8.13;;;3.38;;
39094;SDS011;24840;47.508;19.376;2024-03-17T06:43:06;4.60;;;3.53;;
39094;SDS011;24840;47.508;19.376;2024-03-17T06:45:33;4.43;;;2.42;;
39094;SDS011;24840;47.508;19.376;2024-03-17T06:47:59;3.17;;;2.35;;
39094;SDS011;24840;47.508;19.376;2024-03-17T06:50:25;3.63;;;1.75;;
39094;SDS011;24840;47.508;19.376;2024-03-17T06:52:51;6.20;;;2.08;;
39094;SDS011;24840;47.508;19.376;2024-03-17T06:55:17;6.38;;;1.65;;
39094;SDS011;24840;47.508;19.376;2024-03-17T06:57:44;4.32;;;1.60;;
39094;SDS011;24840;47.508;19.376;2024-03-17T07:00:11;2.50;;;1.50;;
39094;SDS011;24840;47.508;19.376;2024-03-17T07:02:39;2.28;;;1.48;;
39094;SDS011;24840;47.508;19.376;2024-03-17T07:05:06;2.17;;;1.50;;
39094;SDS011;24840;47.508;19.376;2024-03-17T07:07:33;2.63;;;1.40;;
39094;SDS011;24840;47.508;19.376;2024-03-17T07:09:59;2.95;;;1.50;;
39094;SDS011;24840;47.508;19.376;2024-03-17T07:12:30;1.58;;;1.00;;
39094;SDS011;24840;47.508;19.376;2024-03-17T07:14:56;3.72;;;1.50;;
39094;SDS011;24840;47.508;19.376;2024-03-17T07:17:22;2.05;;;1.05;;
39094;SDS011;24840;47.508;19.376;2024-03-17T07:19:48;5.35;;;1.08;;
39094;SDS011;24840;47.508;19.376;2024-03-17T07:22:14;2.50;;;1.15;;
39094;SDS011;24840;47.508;19.376;2024-03-17T07:24:40;1.40;;;0.68;;
39094;SDS011;24840;47.508;19.376;2024-03-17T07:27:09;2.55;;;2.05;;
39094;SDS011;24840;47.508;19.376;2024-03-17T07:29:38;2.92;;;0.80;;
39094;SDS011;24840;47.508;19.376;2024-03-17T07:32:04;4.35;;;1.15;;
39094;SDS011;24840;47.508;19.376;2024-03-17T07:34:31;2.25;;;1.05;;
39094;SDS011;24840;47.508;19.376;2024-03-17T07:36:57;1.63;;;0.98;;
39094;SDS011;24840;47.508;19.376;2024-03-17T07:39:28;5.53;;;2.13;;
39094;SDS011;24840;47.508;19.376;2024-03-17T07:41:57;2.75;;;0.70;;
39094;SDS011;24840;47.508;19.376;2024-03-17T07:44:24;1.35;;;0.90;;
39094;SDS011;24840;47.508;19.376;2024-03-17T07:46:51;3.35;;;1.58;;
39094;SDS011;24840;47.508;19.376;2024-03-17T07:49:17;1.90;;;1.20;;
39094;SDS011;24840;47.508;19.376;2024-03-17T07:51:43;6.25;;;1.17;;
39094;SDS011;24840;47.508;19.376;2024-03-17T07:54:09;3.08;;;0.93;;
39094;SDS011;24840;47.508;19.376;2024-03-17T07:56:36;1.55;;;0.75;;
39094;SDS011;24840;47.508;19.376;2024-03-17T07:59:02;1.85;;;1.00;;
39094;SDS011;24840;47.508;19.376;2024-03-17T08:01:35;3.28;;;1.23;;
39094;SDS011;24840;47.508;19.376;2024-03-17T08:04:01;2.90;;;1.27;;
39094;SDS011;24840;47.508;19.376;2024-03-17T08:06:28;2.13;;;0.80;;
39094;SDS011;24840;47.508;19.376;2024-03-17T08:08:54;3.15;;;0.80;;
39094;SDS011;24840;47.508;19.376;2024-03-17T08:11:22;1.92;;;0.80;;
39094;SDS011;24840;47.508;19.376;2024-03-17T08:13:48;24.27;;;2.58;;
39094;SDS011;24840;47.508;19.376;2024-03-17T08:16:14;2.17;;;0.60;;
39094;SDS011;24840;47.508;19.376;2024-03-17T08:18:42;2.03;;;0.82;;
39094;SDS011;24840;47.508;19.376;2024-03-17T08:21:08;3.22;;;0.90;;
39094;SDS011;24840;47.508;19.376;2024-03-17T08:23:34;2.05;;;0.88;;
39094;SDS011;24840;47.508;19.376;2024-03-17T08:26:07;1.10;;;0.80;;
39094;SDS011;24840;47.508;19.376;2024-03-17T08:28:33;1.92;;;0.88;;
39094;SDS011;24840;47.508;19.376;2024-03-17T08:31:00;15.85;;;3.00;;
39094;SDS011;24840;47.508;19.376;2024-03-17T08:33:27;9.45;;;1.25;;
39094;SDS011;24840;47.508;19.376;2024-03-17T08:36:04;1.88;;;0.95;;
39094;SDS011;24840;47.508;19.376;2024-03-17T08:38:31;5.20;;;1.00;;
39094;SDS011;24840;47.508;19.376;2024-03-17T08:40:57;2.35;;;0.95;;
39094;SDS011;24840;47.508;19.376;2024-03-17T08:43:24;1.95;;;1.15;;
39094;SDS011;24840;47.508;19.376;2024-03-17T08:46:03;1.90;;;0.57;;
39094;SDS011;24840;47.508;19.376;2024-03-17T08:48:30;3.35;;;0.90;;
39094;SDS011;24840;47.508;19.376;2024-03-17T08:50:57;3.95;;;1.25;;
39094;SDS011;24840;47.508;19.376;2024-03-17T08:53:23;2.00;;;1.02;;
39094;SDS011;24840;47.508;19.376;2024-03-17T08:55:50;3.97;;;1.05;;
39094;SDS011;24840;47.508;19.376;2024-03-17T08:58:16;3.53;;;1.25;;
39094;SDS011;24840;47.508;19.376;2024-03-17T09:00:43;1.75;;;0.50;;
39094;SDS011;24840;47.508;19.376;2024-03-17T09:03:09;2.00;;;0.57;;
39094;SDS011;24840;47.508;19.376;2024-03-17T09:05:37;2.55;;;0.70;;
39094;SDS011;24840;47.508;19.376;2024-03-17T09:08:03;1.45;;;0.57;;
39094;SDS011;24840;47.508;19.376;2024-03-17T09:10:29;6.00;;;1.10;;
39094;SDS011;24840;47.508;19.376;2024-03-17T09:12:55;3.15;;;1.10;;
39094;SDS011;24840;47.508;19.376;2024-03-17T09:15:21;2.72;;;1.20;;
39094;SDS011;24840;47.508;19.376;2024-03-17T09:17:47;2.90;;;0.95;;
39094;SDS011;24840;47.508;19.376;2024-03-17T09:20:13;5.40;;;1.45;;
39094;SDS011;24840;47.508;19.376;2024-03-17T09:22:43;18.13;;;1.45;;
39094;SDS011;24840;47.508;19.376;2024-03-17T09:25:09;3.72;;;1.10;;
39094;SDS011;24840;47.508;19.376;2024-03-17T09:27:36;5.05;;;1.20;;
39094;SDS011;24840;47.508;19.376;2024-03-17T09:30:05;3.50;;;1.10;;
39094;SDS011;24840;47.508;19.376;2024-03-17T09:32:34;6.28;;;1.08;;
39094;SDS011;24840;47.508;19.376;2024-03-17T09:35:00;2.28;;;0.90;;
39094;SDS011;24840;47.508;19.376;2024-03-17T09:37:26;2.60;;;0.95;;
39094;SDS011;24840;47.508;19.376;2024-03-17T09:39:52;3.67;;;1.30;;
39094;SDS011;24840;47.508;19.376;2024-03-17T09:42:21;2.05;;;0.88;;
39094;SDS011;24840;47.508;19.376;2024-03-17T09:44:48;3.15;;;1.38;;
39094;SDS011;24840;47.508;19.376;2024-03-17T09:47:18;3.63;;;1.20;;
39094;SDS011;24840;47.508;19.376;2024-03-17T09:49:46;3.13;;;1.60;;
39094;SDS011;24840;47.508;19.376;2024-03-17T09:52:16;2.97;;;1.23;;
39094;SDS011;24840;47.508;19.376;2024-03-17T09:54:43;3.28;;;0.80;;
39094;SDS011;24840;47.508;19.376;2024-03-17T09:57:14;6.10;;;1.38;;
39094;SDS011;24840;47.508;19.376;2024-03-17T09:59:41;4.97;;;1.65;;
39094;SDS011;24840;47.508;19.376;2024-03-17T10:02:09;2.25;;;1.05;;
39094;SDS011;24840;47.508;19.376;2024-03-17T10:04:42;3.75;;;0.95;;
39094;SDS011;24840;47.508;19.376;2024-03-17T10:07:08;2.08;;;0.60;;
39094;SDS011;24840;47.508;19.376;2024-03-17T10:09:34;2.85;;;1.23;;
39094;SDS011;24840;47.508;19.376;2024-03-17T10:12:01;4.15;;;0.50;;
39094;SDS011;24840;47.508;19.376;2024-03-17T10:14:27;2.88;;;0.90;;
39094;SDS011;24840;47.508;19.376;2024-03-17T10:16:53;3.25;;;1.35;;
39094;SDS011;24840;47.508;19.376;2024-03-17T10:19:23;6.53;;;1.20;;
39094;SDS011;24840;47.508;19.376;2024-03-17T10:21:49;5.85;;;1.58;;
39094;SDS011;24840;47.508;19.376;2024-03-17T10:24:25;3.08;;;1.10;;
39094;SDS011;24840;47.508;19.376;2024-03-17T10:26:54;3.42;;;1.45;;
39094;SDS011;24840;47.508;19.376;2024-03-17T10:29:27;2.72;;;1.20;;
39094;SDS011;24840;47.508;19.376;2024-03-17T10:31:55;3.38;;;1.33;;
39094;SDS011;24840;47.508;19.376;2024-03-17T10:34:22;2.35;;;1.55;;
39094;SDS011;24840;47.508;19.376;2024-03-17T10:37:10;4.40;;;1.02;;
39094;SDS011;24840;47.508;19.376;2024-03-17T10:39:36;8.07;;;1.20;;
39094;SDS011;24840;47.508;19.376;2024-03-17T10:42:05;2.83;;;0.82;;
39094;SDS011;24840;47.508;19.376;2024-03-17T10:44:32;3.47;;;1.25;;
39094;SDS011;24840;47.508;19.376;2024-03-17T10:46:58;4.07;;;0.80;;
39094;SDS011;24840;47.508;19.376;2024-03-17T10:49:29;2.17;;;0.70;;
39094;SDS011;24840;47.508;19.376;2024-03-17T10:51:59;5.78;;;1.75;;
39094;SDS011;24840;47.508;19.376;2024-03-17T10:54:26;5.43;;;1.40;;
39094;SDS011;24840;47.508;19.376;2024-03-17T10:56:55;2.05;;;1.02;;
39094;SDS011;24840;47.508;19.376;2024-03-17T10:59:28;4.47;;;1.10;;
39094;SDS011;24840;47.508;19.376;2024-03-17T11:01:55;3.80;;;1.10;;
39094;SDS011;24840;47.508;19.376;2024-03-17T11:04:22;2.53;;;0.90;;
39094;SDS011;24840;47.508;19.376;2024-03-17T11:06:48;2.08;;;0.98;;
39094;SDS011;24840;47.508;19.376;2024-03-17T11:09:15;6.75;;;1.08;;
39094;SDS011;24840;47.508;19.376;2024-03-17T11:11:41;3.35;;;1.20;;
39094;SDS011;24840;47.508;19.376;2024-03-17T11:14:18;5.95;;;1.00;;
39094;SDS011;24840;47.508;19.376;2024-03-17T11:16:47;4.85;;;0.98;;
39094;SDS011;24840;47.508;19.376;2024-03-17T11:19:17;2.80;;;1.30;;
39094;SDS011;24840;47.508;19.376;2024-03-17T11:21:43;4.05;;;1.13;;
39094;SDS011;24840;47.508;19.376;2024-03-17T11:24:18;2.53;;;1.35;;
39094;SDS011;24840;47.508;19.376;2024-03-17T11:26:45;3.35;;;1.20;;
39094;SDS011;24840;47.508;19.376;2024-03-17T11:32:24;3.75;;;0.95;;
39094;SDS011;24840;47.508;19.376;2024-03-17T11:34:54;5.05;;;1.00;;
39094;SDS011;24840;47.508;19.376;2024-03-17T11:37:41;5.38;;;1.08;;
39094;SDS011;24840;47.508;19.376;2024-03-17T11:40:22;4.00;;;0.98;;
39094;SDS011;24840;47.508;19.376;2024-03-17T11:43:04;2.15;;;0.50;;
39094;SDS011;24840;47.508;19.376;2024-03-17T11:45:31;3.22;;;0.80;;
39094;SDS011;24840;47.508;19.376;2024-03-17T11:47:57;4.90;;;1.08;;
39094;SDS011;24840;47.508;19.376;2024-03-17T11:50:23;3.28;;;0.98;;
39094;SDS011;24840;47.508;19.376;2024-03-17T11:52:58;2.90;;;0.70;;
39094;SDS011;24840;47.508;19.376;2024-03-17T11:55:24;1.40;;;0.60;;
39094;SDS011;24840;47.508;19.376;2024-03-17T11:57:57;1.88;;;0.60;;
39094;SDS011;24840;47.508;19.376;2024-03-17T12:00:23;8.88;;;0.77;;
39094;SDS011;24840;47.508;19.376;2024-03-17T12:02:50;6.38;;;0.98;;
39094;SDS011;24840;47.508;19.376;2024-03-17T12:05:16;2.28;;;0.82;;
39094;SDS011;24840;47.508;19.376;2024-03-17T12:07:42;2.85;;;1.45;;
39094;SDS011;24840;47.508;19.376;2024-03-17T12:10:11;1.48;;;0.70;;
39094;SDS011;24840;47.508;19.376;2024-03-17T12:12:41;3.42;;;1.17;;
39094;SDS011;24840;47.508;19.376;2024-03-17T12:15:15;3.60;;;0.98;;
39094;SDS011;24840;47.508;19.376;2024-03-17T12:17:41;6.30;;;1.27;;
39094;SDS011;24840;47.508;19.376;2024-03-17T12:20:16;1.55;;;0.63;;
39094;SDS011;24840;47.508;19.376;2024-03-17T12:22:42;1.67;;;0.75;;
39094;SDS011;24840;47.508;19.376;2024-03-17T12:25:14;2.80;;;0.82;;
39094;SDS011;24840;47.508;19.376;2024-03-17T12:27:43;2.40;;;0.98;;
39094;SDS011;24840;47.508;19.376;2024-03-17T12:30:09;4.10;;;1.20;;
39094;SDS011;24840;47.508;19.376;2024-03-17T12:32:35;1.65;;;0.75;;
39094;SDS011;24840;47.508;19.376;2024-03-17T12:35:01;6.97;;;1.35;;
39094;SDS011;24840;47.508;19.376;2024-03-17T12:37:28;2.30;;;0.68;;
39094;SDS011;24840;47.508;19.376;2024-03-17T12:39:59;13.38;;;1.90;;
39094;SDS011;24840;47.508;19.376;2024-03-17T12:42:25;4.07;;;0.95;;
39094;SDS011;24840;47.508;19.376;2024-03-17T12:44:55;3.40;;;0.80;;
39094;SDS011;24840;47.508;19.376;2024-03-17T12:47:22;1.40;;;0.73;;
39094;SDS011;24840;47.508;19.376;2024-03-17T12:49:49;2.30;;;0.70;;
39094;SDS011;24840;47.508;19.376;2024-03-17T12:54:44;2.47;;;0.90;;
39094;SDS011;24840;47.508;19.376;2024-03-17T12:57:19;1.50;;;1.00;;
39094;SDS011;24840;47.508;19.376;2024-03-17T13:00:16;4.28;;;1.30;;
39094;SDS011;24840;47.508;19.376;2024-03-17T13:02:58;4.00;;;1.20;;
39094;SDS011;24840;47.508;19.376;2024-03-17T13:05:25;2.92;;;1.15;;
39094;SDS011;24840;47.508;19.376;2024-03-17T13:07:51;4.78;;;1.50;;
39094;SDS011;24840;47.508;19.376;2024-03-17T13:10:18;3.33;;;0.95;;
39094;SDS011;24840;47.508;19.376;2024-03-17T13:12:45;2.65;;;1.10;;
39094;SDS011;24840;47.508;19.376;2024-03-17T13:15:12;2.03;;;1.05;;
39094;SDS011;24840;47.508;19.376;2024-03-17T13:17:39;4.50;;;1.25;;
39094;SDS011;24840;47.508;19.376;2024-03-17T13:20:06;5.60;;;1.30;;
39094;SDS011;24840;47.508;19.376;2024-03-17T13:22:36;2.85;;;1.10;;
39094;SDS011;24840;47.508;19.376;2024-03-17T13:25:04;2.25;;;1.00;;
39094;SDS011;24840;47.508;19.376;2024-03-17T13:27:30;1.63;;;0.80;;
39094;SDS011;24840;47.508;19.376;2024-03-17T13:29:56;2.83;;;0.68;;
39094;SDS011;24840;47.508;19.376;2024-03-17T13:32:22;6.35;;;1.20;;
39094;SDS011;24840;47.508;19.376;2024-03-17T13:34:49;9.40;;;1.92;;
39094;SDS011;24840;47.508;19.376;2024-03-17T13:37:16;1.35;;;0.70;;
39094;SDS011;24840;47.508;19.376;2024-03-17T13:39:42;3.35;;;0.75;;
39094;SDS011;24840;47.508;19.376;2024-03-17T13:42:08;2.75;;;0.80;;
39094;SDS011;24840;47.508;19.376;2024-03-17T13:44:34;2.58;;;0.90;;
39094;SDS011;24840;47.508;19.376;2024-03-17T13:47:00;2.53;;;1.30;;
39094;SDS011;24840;47.508;19.376;2024-03-17T13:49:26;4.97;;;0.90;;
39094;SDS011;24840;47.508;19.376;2024-03-17T13:51:55;3.95;;;0.88;;
39094;SDS011;24840;47.508;19.376;2024-03-17T13:54:22;4.63;;;1.30;;
39094;SDS011;24840;47.508;19.376;2024-03-17T13:56:48;2.05;;;1.13;;
39094;SDS011;24840;47.508;19.376;2024-03-17T13:59:17;4.95;;;1.17;;
39094;SDS011;24840;47.508;19.376;2024-03-17T14:01:43;1.85;;;0.95;;
39094;SDS011;24840;47.508;19.376;2024-03-17T14:04:18;2.05;;;0.65;;
39094;SDS011;24840;47.508;19.376;2024-03-17T14:06:45;4.55;;;0.90;;
39094;SDS011;24840;47.508;19.376;2024-03-17T14:09:14;4.03;;;0.50;;
39094;SDS011;24840;47.508;19.376;2024-03-17T14:11:40;4.45;;;1.13;;
39094;SDS011;24840;47.508;19.376;2024-03-17T14:14:06;3.35;;;0.80;;
39094;SDS011;24840;47.508;19.376;2024-03-17T14:16:33;1.80;;;0.52;;
39094;SDS011;24840;47.508;19.376;2024-03-17T14:19:00;5.25;;;0.73;;
39094;SDS011;24840;47.508;19.376;2024-03-17T14:21:27;2.67;;;0.80;;
39094;SDS011;24840;47.508;19.376;2024-03-17T14:23:53;1.05;;;0.50;;
39094;SDS011;24840;47.508;19.376;2024-03-17T14:26:20;2.72;;;0.60;;
39094;SDS011;24840;47.508;19.376;2024-03-17T14:28:46;5.63;;;0.80;;
39094;SDS011;24840;47.508;19.376;2024-03-17T14:31:12;2.03;;;0.82;;
39094;SDS011;24840;47.508;19.376;2024-03-17T14:33:38;3.13;;;1.13;;
39094;SDS011;24840;47.508;19.376;2024-03-17T14:36:05;1.85;;;0.70;;
39094;SDS011;24840;47.508;19.376;2024-03-17T14:38:31;3.55;;;0.90;;